sensor_id;sensor_type;location;lat;lon;timestamp;P1;durP1;ratioP1;P2;durP2;ratioP2
51836;SDS011;38941;53.254;6.600;2023-04-25T00:01:07;13.40;;;2.47;;
51836;SDS011;38941;53.254;6.600;2023-04-25T00:03:09;21.70;;;3.88;;
51836;SDS011;38941;53.254;6.600;2023-04-25T00:05:10;14.10;;;3.58;;
51836;SDS011;38941;53.254;6.600;2023-04-25T00:07:11;10.73;;;2.70;;
51836;SDS011;38941;53.254;6.600;2023-04-25T00:09:14;16.00;;;2.30;;
51836;SDS011;38941;53.254;6.600;2023-04-25T00:11:16;20.23;;;3.65;;
51836;SDS011;38941;53.254;6.600;2023-04-25T00:13:17;23.27;;;3.85;;
51836;SDS011;38941;53.254;6.600;2023-04-25T00:15:18;16.33;;;2.65;;
51836;SDS011;38941;53.254;6.600;2023-04-25T00:17:22;15.68;;;2.15;;
51836;SDS011;38941;53.254;6.600;2023-04-25T00:19:24;14.50;;;3.42;;
51836;SDS011;38941;53.254;6.600;2023-04-25T00:21:26;16.70;;;3.95;;
51836;SDS011;38941;53.254;6.600;2023-04-25T00:23:28;17.00;;;3.95;;
51836;SDS011;38941;53.254;6.600;2023-04-25T00:25:28;18.08;;;2.55;;
51836;SDS011;38941;53.254;6.600;2023-04-25T00:27:29;13.95;;;3.28;;
51836;SDS011;38941;53.254;6.600;2023-04-25T00:29:31;8.98;;;2.63;;
51836;SDS011;38941;53.254;6.600;2023-04-25T00:31:32;10.07;;;2.00;;
51836;SDS011;38941;53.254;6.600;2023-04-25T00:33:32;6.85;;;1.63;;
51836;SDS011;38941;53.254;6.600;2023-04-25T00:35:34;19.15;;;3.53;;
51836;SDS011;38941;53.254;6.600;2023-04-25T00:37:37;15.05;;;2.40;;
51836;SDS011;38941;53.254;6.600;2023-04-25T00:39:39;16.17;;;3.08;;
51836;SDS011;38941;53.254;6.600;2023-04-25T00:41:41;9.35;;;2.22;;
51836;SDS011;38941;53.254;6.600;2023-04-25T00:43:42;11.70;;;2.88;;
51836;SDS011;38941;53.254;6.600;2023-04-25T00:45:46;12.77;;;2.60;;
51836;SDS011;38941;53.254;6.600;2023-04-25T00:47:49;9.23;;;2.75;;
51836;SDS011;38941;53.254;6.600;2023-04-25T00:49:51;7.60;;;1.50;;
51836;SDS011;38941;53.254;6.600;2023-04-25T00:51:55;13.23;;;1.65;;
51836;SDS011;38941;53.254;6.600;2023-04-25T00:53:57;13.02;;;2.38;;
51836;SDS011;38941;53.254;6.600;2023-04-25T00:55:59;15.73;;;2.90;;
51836;SDS011;38941;53.254;6.600;2023-04-25T00:58:00;12.27;;;1.63;;
51836;SDS011;38941;53.254;6.600;2023-04-25T01:00:01;15.98;;;1.75;;
51836;SDS011;38941;53.254;6.600;2023-04-25T01:02:04;11.02;;;1.60;;
51836;SDS011;38941;53.254;6.600;2023-04-25T01:04:06;11.05;;;1.65;;
51836;SDS011;38941;53.254;6.600;2023-04-25T01:06:07;8.27;;;1.20;;
51836;SDS011;38941;53.254;6.600;2023-04-25T01:08:10;11.25;;;2.88;;
51836;SDS011;38941;53.254;6.600;2023-04-25T01:10:12;10.32;;;1.88;;
51836;SDS011;38941;53.254;6.600;2023-04-25T01:12:13;8.93;;;2.15;;
51836;SDS011;38941;53.254;6.600;2023-04-25T01:14:15;14.80;;;3.00;;
51836;SDS011;38941;53.254;6.600;2023-04-25T01:16:17;10.05;;;2.15;;
51836;SDS011;38941;53.254;6.600;2023-04-25T01:18:19;12.57;;;2.20;;
51836;SDS011;38941;53.254;6.600;2023-04-25T01:20:21;11.68;;;2.05;;
51836;SDS011;38941;53.254;6.600;2023-04-25T01:22:27;23.58;;;3.13;;
51836;SDS011;38941;53.254;6.600;2023-04-25T01:24:29;14.68;;;2.05;;
51836;SDS011;38941;53.254;6.600;2023-04-25T01:26:31;8.20;;;1.65;;
51836;SDS011;38941;53.254;6.600;2023-04-25T01:28:33;16.02;;;3.50;;
51836;SDS011;38941;53.254;6.600;2023-04-25T01:30:36;12.20;;;2.45;;
51836;SDS011;38941;53.254;6.600;2023-04-25T01:32:38;15.88;;;3.42;;
51836;SDS011;38941;53.254;6.600;2023-04-25T01:34:40;10.30;;;1.92;;
51836;SDS011;38941;53.254;6.600;2023-04-25T01:36:40;13.57;;;2.42;;
51836;SDS011;38941;53.254;6.600;2023-04-25T01:38:41;9.93;;;1.50;;
51836;SDS011;38941;53.254;6.600;2023-04-25T01:40:44;9.95;;;1.40;;
51836;SDS011;38941;53.254;6.600;2023-04-25T01:42:47;9.95;;;1.95;;
51836;SDS011;38941;53.254;6.600;2023-04-25T01:44:49;13.43;;;3.03;;
51836;SDS011;38941;53.254;6.600;2023-04-25T01:46:51;17.30;;;3.35;;
51836;SDS011;38941;53.254;6.600;2023-04-25T01:48:52;12.93;;;2.28;;
51836;SDS011;38941;53.254;6.600;2023-04-25T01:50:54;17.42;;;2.08;;
51836;SDS011;38941;53.254;6.600;2023-04-25T01:52:56;15.05;;;1.95;;
51836;SDS011;38941;53.254;6.600;2023-04-25T01:54:58;12.13;;;2.17;;
51836;SDS011;38941;53.254;6.600;2023-04-25T01:57:01;12.48;;;1.95;;
51836;SDS011;38941;53.254;6.600;2023-04-25T01:59:03;10.10;;;2.22;;
51836;SDS011;38941;53.254;6.600;2023-04-25T02:01:05;15.38;;;2.13;;
51836;SDS011;38941;53.254;6.600;2023-04-25T02:03:07;9.73;;;2.47;;
51836;SDS011;38941;53.254;6.600;2023-04-25T02:05:08;15.88;;;2.30;;
51836;SDS011;38941;53.254;6.600;2023-04-25T02:07:09;10.55;;;2.63;;
51836;SDS011;38941;53.254;6.600;2023-04-25T02:09:10;16.05;;;2.53;;
51836;SDS011;38941;53.254;6.600;2023-04-25T02:11:12;16.50;;;2.42;;
51836;SDS011;38941;53.254;6.600;2023-04-25T02:13:12;9.07;;;1.90;;
51836;SDS011;38941;53.254;6.600;2023-04-25T02:15:13;17.98;;;2.28;;
51836;SDS011;38941;53.254;6.600;2023-04-25T02:17:15;14.60;;;2.40;;
51836;SDS011;38941;53.254;6.600;2023-04-25T02:19:16;12.95;;;3.15;;
51836;SDS011;38941;53.254;6.600;2023-04-25T02:21:18;12.57;;;2.83;;
51836;SDS011;38941;53.254;6.600;2023-04-25T02:23:19;14.70;;;2.45;;
51836;SDS011;38941;53.254;6.600;2023-04-25T02:25:21;16.20;;;3.30;;
51836;SDS011;38941;53.254;6.600;2023-04-25T02:27:22;12.80;;;3.03;;
51836;SDS011;38941;53.254;6.600;2023-04-25T02:29:24;11.98;;;1.65;;
51836;SDS011;38941;53.254;6.600;2023-04-25T02:31:25;5.32;;;1.33;;
51836;SDS011;38941;53.254;6.600;2023-04-25T02:33:28;10.00;;;2.00;;
51836;SDS011;38941;53.254;6.600;2023-04-25T02:35:29;16.73;;;1.60;;
51836;SDS011;38941;53.254;6.600;2023-04-25T02:37:30;8.48;;;2.13;;
51836;SDS011;38941;53.254;6.600;2023-04-25T02:39:32;18.85;;;2.72;;
51836;SDS011;38941;53.254;6.600;2023-04-25T02:41:36;7.55;;;1.67;;
51836;SDS011;38941;53.254;6.600;2023-04-25T02:43:37;10.45;;;1.65;;
51836;SDS011;38941;53.254;6.600;2023-04-25T02:45:39;9.10;;;1.60;;
51836;SDS011;38941;53.254;6.600;2023-04-25T02:47:40;13.35;;;2.40;;
51836;SDS011;38941;53.254;6.600;2023-04-25T02:49:41;8.85;;;1.40;;
51836;SDS011;38941;53.254;6.600;2023-04-25T02:51:45;15.80;;;2.83;;
51836;SDS011;38941;53.254;6.600;2023-04-25T02:53:48;6.60;;;1.33;;
51836;SDS011;38941;53.254;6.600;2023-04-25T02:55:48;5.05;;;1.23;;
51836;SDS011;38941;53.254;6.600;2023-04-25T02:57:50;6.95;;;1.77;;
51836;SDS011;38941;53.254;6.600;2023-04-25T02:59:54;14.82;;;2.30;;
51836;SDS011;38941;53.254;6.600;2023-04-25T03:02:01;8.48;;;1.42;;
51836;SDS011;38941;53.254;6.600;2023-04-25T03:04:03;13.10;;;1.83;;
51836;SDS011;38941;53.254;6.600;2023-04-25T03:08:07;10.15;;;1.45;;
51836;SDS011;38941;53.254;6.600;2023-04-25T03:10:08;7.72;;;1.75;;
51836;SDS011;38941;53.254;6.600;2023-04-25T03:12:11;13.85;;;2.38;;
51836;SDS011;38941;53.254;6.600;2023-04-25T03:14:12;9.55;;;1.67;;
51836;SDS011;38941;53.254;6.600;2023-04-25T03:16:13;7.90;;;1.67;;
51836;SDS011;38941;53.254;6.600;2023-04-25T03:18:16;8.60;;;2.00;;
51836;SDS011;38941;53.254;6.600;2023-04-25T03:20:17;10.20;;;2.50;;
51836;SDS011;38941;53.254;6.600;2023-04-25T03:22:19;6.90;;;1.40;;
51836;SDS011;38941;53.254;6.600;2023-04-25T03:24:20;12.93;;;1.88;;
51836;SDS011;38941;53.254;6.600;2023-04-25T03:26:22;11.10;;;1.70;;
51836;SDS011;38941;53.254;6.600;2023-04-25T03:28:24;16.58;;;1.70;;
51836;SDS011;38941;53.254;6.600;2023-04-25T03:30:25;7.20;;;1.55;;
51836;SDS011;38941;53.254;6.600;2023-04-25T03:32:26;13.70;;;1.38;;
51836;SDS011;38941;53.254;6.600;2023-04-25T03:34:28;13.50;;;1.35;;
51836;SDS011;38941;53.254;6.600;2023-04-25T03:36:30;14.00;;;1.65;;
51836;SDS011;38941;53.254;6.600;2023-04-25T03:38:30;10.70;;;2.45;;
51836;SDS011;38941;53.254;6.600;2023-04-25T03:40:31;12.90;;;2.60;;
51836;SDS011;38941;53.254;6.600;2023-04-25T03:42:33;12.93;;;1.70;;
51836;SDS011;38941;53.254;6.600;2023-04-25T03:44:33;5.13;;;1.52;;
51836;SDS011;38941;53.254;6.600;2023-04-25T03:46:35;8.40;;;1.63;;
51836;SDS011;38941;53.254;6.600;2023-04-25T03:48:38;7.65;;;1.20;;
51836;SDS011;38941;53.254;6.600;2023-04-25T03:50:39;10.95;;;1.75;;
51836;SDS011;38941;53.254;6.600;2023-04-25T03:52:40;10.63;;;1.40;;
51836;SDS011;38941;53.254;6.600;2023-04-25T03:54:40;8.35;;;1.92;;
51836;SDS011;38941;53.254;6.600;2023-04-25T03:56:41;9.68;;;1.50;;
51836;SDS011;38941;53.254;6.600;2023-04-25T03:58:43;11.63;;;1.85;;
51836;SDS011;38941;53.254;6.600;2023-04-25T04:00:45;15.10;;;2.15;;
51836;SDS011;38941;53.254;6.600;2023-04-25T04:02:47;8.57;;;1.83;;
51836;SDS011;38941;53.254;6.600;2023-04-25T04:04:48;6.80;;;1.08;;
51836;SDS011;38941;53.254;6.600;2023-04-25T04:06:51;6.68;;;1.38;;
51836;SDS011;38941;53.254;6.600;2023-04-25T04:08:52;10.85;;;1.45;;
51836;SDS011;38941;53.254;6.600;2023-04-25T04:10:53;9.98;;;1.55;;
51836;SDS011;38941;53.254;6.600;2023-04-25T04:12:55;11.05;;;1.48;;
51836;SDS011;38941;53.254;6.600;2023-04-25T04:14:57;12.10;;;1.85;;
51836;SDS011;38941;53.254;6.600;2023-04-25T04:17:00;9.85;;;1.90;;
51836;SDS011;38941;53.254;6.600;2023-04-25T04:19:01;10.77;;;1.50;;
51836;SDS011;38941;53.254;6.600;2023-04-25T04:21:02;8.82;;;2.08;;
51836;SDS011;38941;53.254;6.600;2023-04-25T04:23:04;10.88;;;1.90;;
51836;SDS011;38941;53.254;6.600;2023-04-25T04:25:05;9.35;;;1.27;;
51836;SDS011;38941;53.254;6.600;2023-04-25T04:27:07;8.45;;;1.77;;
51836;SDS011;38941;53.254;6.600;2023-04-25T04:29:08;12.00;;;3.38;;
51836;SDS011;38941;53.254;6.600;2023-04-25T04:31:11;7.07;;;1.20;;
51836;SDS011;38941;53.254;6.600;2023-04-25T04:33:13;9.85;;;1.65;;
51836;SDS011;38941;53.254;6.600;2023-04-25T04:35:21;16.73;;;2.38;;
51836;SDS011;38941;53.254;6.600;2023-04-25T04:37:24;9.80;;;2.13;;
51836;SDS011;38941;53.254;6.600;2023-04-25T04:39:25;7.43;;;1.35;;
51836;SDS011;38941;53.254;6.600;2023-04-25T04:41:27;7.25;;;1.20;;
51836;SDS011;38941;53.254;6.600;2023-04-25T04:43:29;8.93;;;1.20;;
51836;SDS011;38941;53.254;6.600;2023-04-25T04:45:34;7.40;;;2.00;;
51836;SDS011;38941;53.254;6.600;2023-04-25T04:47:35;9.10;;;2.03;;
51836;SDS011;38941;53.254;6.600;2023-04-25T04:49:37;11.35;;;1.50;;
51836;SDS011;38941;53.254;6.600;2023-04-25T04:51:38;10.55;;;1.55;;
51836;SDS011;38941;53.254;6.600;2023-04-25T04:53:41;6.63;;;1.13;;
51836;SDS011;38941;53.254;6.600;2023-04-25T04:55:43;6.80;;;1.20;;
51836;SDS011;38941;53.254;6.600;2023-04-25T04:57:44;5.38;;;1.35;;
51836;SDS011;38941;53.254;6.600;2023-04-25T04:59:46;9.43;;;2.00;;
51836;SDS011;38941;53.254;6.600;2023-04-25T05:01:48;6.30;;;1.20;;
51836;SDS011;38941;53.254;6.600;2023-04-25T05:03:51;7.63;;;1.30;;
51836;SDS011;38941;53.254;6.600;2023-04-25T05:05:53;9.93;;;1.10;;
51836;SDS011;38941;53.254;6.600;2023-04-25T05:07:55;8.48;;;0.95;;
51836;SDS011;38941;53.254;6.600;2023-04-25T05:09:57;7.82;;;0.93;;
51836;SDS011;38941;53.254;6.600;2023-04-25T05:11:57;3.17;;;1.05;;
51836;SDS011;38941;53.254;6.600;2023-04-25T05:14:01;4.88;;;1.45;;
51836;SDS011;38941;53.254;6.600;2023-04-25T05:16:01;7.88;;;1.88;;
51836;SDS011;38941;53.254;6.600;2023-04-25T05:18:05;1.83;;;0.80;;
51836;SDS011;38941;53.254;6.600;2023-04-25T05:20:06;5.32;;;0.68;;
51836;SDS011;38941;53.254;6.600;2023-04-25T05:22:12;2.58;;;0.55;;
51836;SDS011;38941;53.254;6.600;2023-04-25T05:24:14;2.20;;;0.77;;
51836;SDS011;38941;53.254;6.600;2023-04-25T05:26:16;3.33;;;0.90;;
51836;SDS011;38941;53.254;6.600;2023-04-25T05:28:18;1.70;;;0.60;;
51836;SDS011;38941;53.254;6.600;2023-04-25T05:30:20;3.78;;;0.70;;
51836;SDS011;38941;53.254;6.600;2023-04-25T05:32:21;5.25;;;0.52;;
51836;SDS011;38941;53.254;6.600;2023-04-25T05:34:29;2.90;;;0.70;;
51836;SDS011;38941;53.254;6.600;2023-04-25T05:36:31;2.17;;;0.60;;
51836;SDS011;38941;53.254;6.600;2023-04-25T05:38:33;2.65;;;0.90;;
51836;SDS011;38941;53.254;6.600;2023-04-25T05:40:34;8.98;;;1.50;;
51836;SDS011;38941;53.254;6.600;2023-04-25T05:42:36;5.65;;;1.00;;
51836;SDS011;38941;53.254;6.600;2023-04-25T05:44:37;2.83;;;0.77;;
51836;SDS011;38941;53.254;6.600;2023-04-25T05:46:38;9.30;;;0.82;;
51836;SDS011;38941;53.254;6.600;2023-04-25T05:48:39;4.72;;;1.00;;
51836;SDS011;38941;53.254;6.600;2023-04-25T05:50:40;5.25;;;0.80;;
51836;SDS011;38941;53.254;6.600;2023-04-25T05:52:44;4.75;;;0.95;;
51836;SDS011;38941;53.254;6.600;2023-04-25T05:54:45;8.70;;;1.20;;
51836;SDS011;38941;53.254;6.600;2023-04-25T05:58:50;8.88;;;1.10;;
51836;SDS011;38941;53.254;6.600;2023-04-25T06:00:51;5.10;;;1.50;;
51836;SDS011;38941;53.254;6.600;2023-04-25T06:02:52;9.38;;;3.28;;
51836;SDS011;38941;53.254;6.600;2023-04-25T06:04:53;5.43;;;1.50;;
51836;SDS011;38941;53.254;6.600;2023-04-25T06:06:55;8.68;;;2.10;;
51836;SDS011;38941;53.254;6.600;2023-04-25T06:08:57;7.20;;;1.00;;
51836;SDS011;38941;53.254;6.600;2023-04-25T06:10:58;10.10;;;1.52;;
51836;SDS011;38941;53.254;6.600;2023-04-25T06:12:59;5.65;;;0.80;;
51836;SDS011;38941;53.254;6.600;2023-04-25T06:15:01;4.07;;;1.08;;
51836;SDS011;38941;53.254;6.600;2023-04-25T06:17:03;7.10;;;1.63;;
51836;SDS011;38941;53.254;6.600;2023-04-25T06:19:08;2.30;;;0.50;;
51836;SDS011;38941;53.254;6.600;2023-04-25T06:21:09;3.13;;;0.52;;
51836;SDS011;38941;53.254;6.600;2023-04-25T06:23:16;3.55;;;0.68;;
51836;SDS011;38941;53.254;6.600;2023-04-25T06:25:21;5.20;;;0.57;;
51836;SDS011;38941;53.254;6.600;2023-04-25T06:27:25;4.18;;;0.52;;
51836;SDS011;38941;53.254;6.600;2023-04-25T06:29:28;2.80;;;0.68;;
51836;SDS011;38941;53.254;6.600;2023-04-25T06:31:30;3.75;;;0.43;;
51836;SDS011;38941;53.254;6.600;2023-04-25T06:33:33;5.70;;;0.80;;
51836;SDS011;38941;53.254;6.600;2023-04-25T06:35:34;5.82;;;1.25;;
51836;SDS011;38941;53.254;6.600;2023-04-25T06:37:34;3.70;;;1.02;;
51836;SDS011;38941;53.254;6.600;2023-04-25T06:39:35;7.95;;;1.88;;
51836;SDS011;38941;53.254;6.600;2023-04-25T06:41:37;5.70;;;1.20;;
51836;SDS011;38941;53.254;6.600;2023-04-25T06:43:40;7.57;;;1.50;;
51836;SDS011;38941;53.254;6.600;2023-04-25T06:45:40;8.70;;;1.60;;
51836;SDS011;38941;53.254;6.600;2023-04-25T06:47:43;8.98;;;1.35;;
51836;SDS011;38941;53.254;6.600;2023-04-25T06:49:45;11.93;;;1.48;;
51836;SDS011;38941;53.254;6.600;2023-04-25T06:51:45;9.70;;;1.15;;
51836;SDS011;38941;53.254;6.600;2023-04-25T06:53:46;5.50;;;1.00;;
51836;SDS011;38941;53.254;6.600;2023-04-25T06:55:47;9.75;;;1.40;;
51836;SDS011;38941;53.254;6.600;2023-04-25T06:57:48;7.90;;;0.90;;
51836;SDS011;38941;53.254;6.600;2023-04-25T06:59:49;6.93;;;0.88;;
51836;SDS011;38941;53.254;6.600;2023-04-25T07:01:51;5.65;;;1.05;;
51836;SDS011;38941;53.254;6.600;2023-04-25T07:03:52;6.30;;;2.10;;
51836;SDS011;38941;53.254;6.600;2023-04-25T07:05:53;6.55;;;1.45;;
51836;SDS011;38941;53.254;6.600;2023-04-25T07:07:55;8.60;;;1.10;;
51836;SDS011;38941;53.254;6.600;2023-04-25T07:09:57;4.38;;;0.80;;
51836;SDS011;38941;53.254;6.600;2023-04-25T07:11:59;14.20;;;2.50;;
51836;SDS011;38941;53.254;6.600;2023-04-25T07:14:02;3.38;;;0.98;;
51836;SDS011;38941;53.254;6.600;2023-04-25T07:16:03;8.07;;;1.30;;
51836;SDS011;38941;53.254;6.600;2023-04-25T07:18:05;8.30;;;1.65;;
51836;SDS011;38941;53.254;6.600;2023-04-25T07:20:05;3.50;;;0.77;;
51836;SDS011;38941;53.254;6.600;2023-04-25T07:22:08;3.22;;;0.95;;
51836;SDS011;38941;53.254;6.600;2023-04-25T07:24:09;5.95;;;0.93;;
51836;SDS011;38941;53.254;6.600;2023-04-25T07:26:10;14.05;;;1.05;;
51836;SDS011;38941;53.254;6.600;2023-04-25T07:28:13;11.18;;;1.67;;
51836;SDS011;38941;53.254;6.600;2023-04-25T07:30:16;5.30;;;0.95;;
51836;SDS011;38941;53.254;6.600;2023-04-25T07:32:18;3.90;;;0.80;;
51836;SDS011;38941;53.254;6.600;2023-04-25T07:34:19;4.53;;;0.93;;
51836;SDS011;38941;53.254;6.600;2023-04-25T07:36:21;7.68;;;0.93;;
51836;SDS011;38941;53.254;6.600;2023-04-25T07:38:23;11.77;;;1.98;;
51836;SDS011;38941;53.254;6.600;2023-04-25T07:40:24;4.68;;;0.63;;
51836;SDS011;38941;53.254;6.600;2023-04-25T07:42:25;10.27;;;0.80;;
51836;SDS011;38941;53.254;6.600;2023-04-25T07:44:26;8.82;;;0.98;;
51836;SDS011;38941;53.254;6.600;2023-04-25T07:46:28;11.70;;;1.00;;
51836;SDS011;38941;53.254;6.600;2023-04-25T07:48:30;7.05;;;1.50;;
51836;SDS011;38941;53.254;6.600;2023-04-25T07:50:31;6.22;;;1.52;;
51836;SDS011;38941;53.254;6.600;2023-04-25T07:52:35;4.13;;;0.70;;
51836;SDS011;38941;53.254;6.600;2023-04-25T07:54:36;4.63;;;0.75;;
51836;SDS011;38941;53.254;6.600;2023-04-25T07:56:38;10.07;;;1.08;;
51836;SDS011;38941;53.254;6.600;2023-04-25T07:58:39;3.40;;;0.80;;
51836;SDS011;38941;53.254;6.600;2023-04-25T08:00:39;6.85;;;0.90;;
51836;SDS011;38941;53.254;6.600;2023-04-25T08:02:41;6.10;;;1.35;;
51836;SDS011;38941;53.254;6.600;2023-04-25T08:04:43;5.78;;;1.08;;
51836;SDS011;38941;53.254;6.600;2023-04-25T08:06:44;4.63;;;0.70;;
51836;SDS011;38941;53.254;6.600;2023-04-25T08:08:47;3.83;;;0.52;;
51836;SDS011;38941;53.254;6.600;2023-04-25T08:10:49;4.13;;;0.60;;
51836;SDS011;38941;53.254;6.600;2023-04-25T08:12:50;4.63;;;0.68;;
51836;SDS011;38941;53.254;6.600;2023-04-25T08:14:52;2.03;;;0.70;;
51836;SDS011;38941;53.254;6.600;2023-04-25T08:16:53;7.57;;;0.68;;
51836;SDS011;38941;53.254;6.600;2023-04-25T08:18:55;7.55;;;1.50;;
51836;SDS011;38941;53.254;6.600;2023-04-25T08:20:57;6.10;;;0.93;;
51836;SDS011;38941;53.254;6.600;2023-04-25T08:22:59;3.38;;;0.68;;
51836;SDS011;38941;53.254;6.600;2023-04-25T08:25:00;6.53;;;0.50;;
51836;SDS011;38941;53.254;6.600;2023-04-25T08:27:01;1.15;;;0.60;;
51836;SDS011;38941;53.254;6.600;2023-04-25T08:29:04;6.22;;;1.13;;
51836;SDS011;38941;53.254;6.600;2023-04-25T08:31:06;3.75;;;0.57;;
51836;SDS011;38941;53.254;6.600;2023-04-25T08:33:07;4.13;;;0.57;;
51836;SDS011;38941;53.254;6.600;2023-04-25T08:35:07;5.28;;;0.60;;
51836;SDS011;38941;53.254;6.600;2023-04-25T08:37:09;3.42;;;0.90;;
51836;SDS011;38941;53.254;6.600;2023-04-25T08:39:10;4.07;;;1.50;;
51836;SDS011;38941;53.254;6.600;2023-04-25T08:41:12;5.25;;;1.27;;
51836;SDS011;38941;53.254;6.600;2023-04-25T08:43:14;2.83;;;0.60;;
51836;SDS011;38941;53.254;6.600;2023-04-25T08:45:15;4.85;;;0.93;;
51836;SDS011;38941;53.254;6.600;2023-04-25T08:47:15;3.55;;;0.47;;
51836;SDS011;38941;53.254;6.600;2023-04-25T08:49:20;3.60;;;0.63;;
51836;SDS011;38941;53.254;6.600;2023-04-25T08:51:22;6.97;;;1.67;;
51836;SDS011;38941;53.254;6.600;2023-04-25T08:53:31;3.92;;;0.65;;
51836;SDS011;38941;53.254;6.600;2023-04-25T08:55:36;3.20;;;0.35;;
51836;SDS011;38941;53.254;6.600;2023-04-25T08:57:39;7.18;;;1.35;;
51836;SDS011;38941;53.254;6.600;2023-04-25T08:59:42;1.33;;;0.40;;
51836;SDS011;38941;53.254;6.600;2023-04-25T09:01:46;3.17;;;1.20;;
51836;SDS011;38941;53.254;6.600;2023-04-25T09:03:50;9.10;;;0.70;;
51836;SDS011;38941;53.254;6.600;2023-04-25T09:05:51;6.22;;;1.13;;
51836;SDS011;38941;53.254;6.600;2023-04-25T09:07:54;7.28;;;1.02;;
51836;SDS011;38941;53.254;6.600;2023-04-25T09:09:57;8.40;;;0.98;;
51836;SDS011;38941;53.254;6.600;2023-04-25T09:12:01;9.15;;;1.00;;
51836;SDS011;38941;53.254;6.600;2023-04-25T09:14:12;4.82;;;1.33;;
51836;SDS011;38941;53.254;6.600;2023-04-25T09:16:17;5.35;;;0.80;;
51836;SDS011;38941;53.254;6.600;2023-04-25T09:18:22;5.50;;;1.40;;
51836;SDS011;38941;53.254;6.600;2023-04-25T09:20:30;3.85;;;1.13;;
51836;SDS011;38941;53.254;6.600;2023-04-25T09:22:31;6.57;;;1.20;;
51836;SDS011;38941;53.254;6.600;2023-04-25T09:24:36;5.40;;;0.90;;
51836;SDS011;38941;53.254;6.600;2023-04-25T09:26:45;3.90;;;0.98;;
51836;SDS011;38941;53.254;6.600;2023-04-25T09:28:47;4.45;;;1.75;;
51836;SDS011;38941;53.254;6.600;2023-04-25T09:30:48;5.70;;;0.70;;
51836;SDS011;38941;53.254;6.600;2023-04-25T09:32:50;4.13;;;1.35;;
51836;SDS011;38941;53.254;6.600;2023-04-25T09:34:56;6.10;;;1.38;;
51836;SDS011;38941;53.254;6.600;2023-04-25T09:37:01;5.07;;;1.33;;
51836;SDS011;38941;53.254;6.600;2023-04-25T09:39:02;8.77;;;2.33;;
51836;SDS011;38941;53.254;6.600;2023-04-25T09:41:04;11.45;;;1.20;;
51836;SDS011;38941;53.254;6.600;2023-04-25T09:43:20;9.35;;;1.58;;
51836;SDS011;38941;53.254;6.600;2023-04-25T09:45:25;7.65;;;2.03;;
51836;SDS011;38941;53.254;6.600;2023-04-25T09:47:26;5.88;;;1.00;;
51836;SDS011;38941;53.254;6.600;2023-04-25T09:49:28;8.35;;;0.93;;
51836;SDS011;38941;53.254;6.600;2023-04-25T09:51:29;7.28;;;0.80;;
51836;SDS011;38941;53.254;6.600;2023-04-25T09:53:30;5.70;;;0.90;;
51836;SDS011;38941;53.254;6.600;2023-04-25T09:55:33;5.95;;;0.68;;
51836;SDS011;38941;53.254;6.600;2023-04-25T09:57:35;6.22;;;1.98;;
51836;SDS011;38941;53.254;6.600;2023-04-25T09:59:50;8.55;;;1.20;;
51836;SDS011;38941;53.254;6.600;2023-04-25T10:01:55;9.43;;;1.30;;
51836;SDS011;38941;53.254;6.600;2023-04-25T10:03:57;7.28;;;0.90;;
51836;SDS011;38941;53.254;6.600;2023-04-25T10:05:59;12.43;;;1.30;;
51836;SDS011;38941;53.254;6.600;2023-04-25T10:08:03;10.50;;;1.10;;
51836;SDS011;38941;53.254;6.600;2023-04-25T10:10:05;6.15;;;0.70;;
51836;SDS011;38941;53.254;6.600;2023-04-25T10:12:06;1.63;;;0.52;;
51836;SDS011;38941;53.254;6.600;2023-04-25T10:14:08;3.78;;;0.73;;
51836;SDS011;38941;53.254;6.600;2023-04-25T10:16:09;3.58;;;0.80;;
51836;SDS011;38941;53.254;6.600;2023-04-25T10:18:10;2.70;;;0.95;;
51836;SDS011;38941;53.254;6.600;2023-04-25T10:20:13;4.57;;;0.80;;
51836;SDS011;38941;53.254;6.600;2023-04-25T10:22:16;5.65;;;0.90;;
51836;SDS011;38941;53.254;6.600;2023-04-25T10:24:20;7.63;;;1.25;;
51836;SDS011;38941;53.254;6.600;2023-04-25T10:26:21;10.32;;;2.00;;
51836;SDS011;38941;53.254;6.600;2023-04-25T10:28:22;8.02;;;1.42;;
51836;SDS011;38941;53.254;6.600;2023-04-25T10:30:23;5.85;;;1.08;;
51836;SDS011;38941;53.254;6.600;2023-04-25T10:32:24;3.35;;;0.80;;
51836;SDS011;38941;53.254;6.600;2023-04-25T10:34:37;5.88;;;1.15;;
51836;SDS011;38941;53.254;6.600;2023-04-25T10:36:42;7.25;;;2.33;;
51836;SDS011;38941;53.254;6.600;2023-04-25T10:38:45;4.75;;;1.13;;
51836;SDS011;38941;53.254;6.600;2023-04-25T10:41:02;4.45;;;1.08;;
51836;SDS011;38941;53.254;6.600;2023-04-25T10:45:52;6.50;;;0.95;;
51836;SDS011;38941;53.254;6.600;2023-04-25T10:47:54;6.47;;;1.20;;
51836;SDS011;38941;53.254;6.600;2023-04-25T10:49:54;5.57;;;1.27;;
51836;SDS011;38941;53.254;6.600;2023-04-25T10:54:42;5.53;;;1.00;;
51836;SDS011;38941;53.254;6.600;2023-04-25T10:56:43;3.40;;;0.80;;
51836;SDS011;38941;53.254;6.600;2023-04-25T10:58:44;9.13;;;1.20;;
51836;SDS011;38941;53.254;6.600;2023-04-25T11:00:45;7.10;;;1.70;;
51836;SDS011;38941;53.254;6.600;2023-04-25T11:04:53;4.55;;;1.17;;
51836;SDS011;38941;53.254;6.600;2023-04-25T11:09:29;2.22;;;0.70;;
51836;SDS011;38941;53.254;6.600;2023-04-25T11:11:30;3.53;;;0.55;;
51836;SDS011;38941;53.254;6.600;2023-04-25T11:13:33;4.15;;;0.80;;
51836;SDS011;38941;53.254;6.600;2023-04-25T11:15:33;2.65;;;0.30;;
51836;SDS011;38941;53.254;6.600;2023-04-25T11:17:34;5.07;;;0.95;;
51836;SDS011;38941;53.254;6.600;2023-04-25T11:19:36;6.93;;;0.80;;
51836;SDS011;38941;53.254;6.600;2023-04-25T11:21:37;3.88;;;0.95;;
51836;SDS011;38941;53.254;6.600;2023-04-25T11:23:37;4.53;;;1.05;;
51836;SDS011;38941;53.254;6.600;2023-04-25T11:25:38;11.50;;;2.60;;
51836;SDS011;38941;53.254;6.600;2023-04-25T11:27:55;6.25;;;1.10;;
51836;SDS011;38941;53.254;6.600;2023-04-25T11:29:57;4.55;;;1.13;;
51836;SDS011;38941;53.254;6.600;2023-04-25T11:31:58;7.28;;;0.90;;
51836;SDS011;38941;53.254;6.600;2023-04-25T11:34:00;4.57;;;0.95;;
51836;SDS011;38941;53.254;6.600;2023-04-25T11:36:00;3.70;;;0.88;;
51836;SDS011;38941;53.254;6.600;2023-04-25T11:38:01;7.85;;;1.33;;
51836;SDS011;38941;53.254;6.600;2023-04-25T11:40:02;10.60;;;0.93;;
51836;SDS011;38941;53.254;6.600;2023-04-25T11:42:06;5.75;;;0.90;;
51836;SDS011;38941;53.254;6.600;2023-04-25T11:44:07;6.80;;;0.98;;
51836;SDS011;38941;53.254;6.600;2023-04-25T11:46:07;6.57;;;1.23;;
51836;SDS011;38941;53.254;6.600;2023-04-25T11:48:08;8.68;;;1.38;;
51836;SDS011;38941;53.254;6.600;2023-04-25T11:50:09;6.07;;;0.93;;
51836;SDS011;38941;53.254;6.600;2023-04-25T11:52:11;3.88;;;0.88;;
51836;SDS011;38941;53.254;6.600;2023-04-25T11:54:12;7.38;;;0.70;;
51836;SDS011;38941;53.254;6.600;2023-04-25T11:56:13;2.72;;;0.60;;
51836;SDS011;38941;53.254;6.600;2023-04-25T11:58:14;7.40;;;1.00;;
51836;SDS011;38941;53.254;6.600;2023-04-25T12:02:24;8.00;;;0.98;;
51836;SDS011;38941;53.254;6.600;2023-04-25T12:04:25;6.30;;;1.23;;
51836;SDS011;38941;53.254;6.600;2023-04-25T12:06:29;5.63;;;0.65;;
51836;SDS011;38941;53.254;6.600;2023-04-25T12:08:30;7.38;;;0.90;;
51836;SDS011;38941;53.254;6.600;2023-04-25T12:10:31;5.88;;;1.00;;
51836;SDS011;38941;53.254;6.600;2023-04-25T12:12:32;6.72;;;1.08;;
51836;SDS011;38941;53.254;6.600;2023-04-25T12:14:35;12.68;;;1.75;;
51836;SDS011;38941;53.254;6.600;2023-04-25T12:16:42;7.75;;;0.73;;
51836;SDS011;38941;53.254;6.600;2023-04-25T12:18:44;4.63;;;1.00;;
51836;SDS011;38941;53.254;6.600;2023-04-25T12:20:45;7.63;;;1.50;;
51836;SDS011;38941;53.254;6.600;2023-04-25T12:22:46;8.73;;;1.30;;
51836;SDS011;38941;53.254;6.600;2023-04-25T12:24:48;8.15;;;0.77;;
51836;SDS011;38941;53.254;6.600;2023-04-25T12:26:50;4.38;;;0.98;;
51836;SDS011;38941;53.254;6.600;2023-04-25T12:29:14;9.77;;;1.00;;